createdAt,value
2018-05-18T00:00:16.218Z,100260.30
2018-05-18T00:02:46.178Z,100269.80
2018-05-18T00:05:14.573Z,100269.74
2018-05-18T00:07:42.920Z,100272.27
2018-05-18T00:10:11.267Z,100274.56
2018-05-18T00:12:39.667Z,100276.54
2018-05-18T00:15:08.018Z,100278.31
2018-05-18T00:17:36.456Z,100279.09
2018-05-18T00:20:04.791Z,100285.30
2018-05-18T00:22:33.135Z,100280.25
2018-05-18T00:25:01.535Z,100281.20
2018-05-18T00:27:29.877Z,100282.02
2018-05-18T00:29:58.209Z,100287.81
2018-05-18T00:32:26.566Z,100290.63
2018-05-18T00:34:55.148Z,100293.66
2018-05-18T00:37:23.618Z,100290.48
2018-05-18T00:39:52.057Z,100298.97
2018-05-18T00:42:20.348Z,100300.98
2018-05-18T00:44:48.684Z,100306.10
2018-05-18T00:47:17.067Z,100296.61
2018-05-18T00:49:45.500Z,100301.87
2018-05-18T00:52:13.857Z,100299.86
2018-05-18T00:54:42.188Z,100295.94
2018-05-18T00:57:10.534Z,100294.73
2018-05-18T00:59:38.875Z,100298.09
2018-05-18T01:02:07.226Z,100306.05
2018-05-18T01:04:35.579Z,100302.58
2018-05-18T01:07:04.304Z,100312.59
2018-05-18T01:09:32.648Z,100312.09
2018-05-18T01:12:01.003Z,100306.62
2018-05-18T01:14:34.748Z,100307.31
2018-05-18T01:17:02.892Z,100316.00
2018-05-18T01:19:31.284Z,100316.31
2018-05-18T01:21:59.772Z,100317.97
2018-05-18T01:24:28.127Z,100313.42
2018-05-18T01:26:56.457Z,100318.65
2018-05-18T01:29:24.862Z,100312.13
2018-05-18T01:31:53.205Z,100312.39
2018-05-18T01:34:21.551Z,100313.88
2018-05-18T01:36:49.900Z,100316.13
2018-05-18T01:39:18.360Z,100312.70
2018-05-18T01:41:46.701Z,100312.96
2018-05-18T01:44:15.125Z,100302.81
2018-05-18T01:46:43.535Z,100310.06
2018-05-18T01:49:15.879Z,100309.25
2018-05-18T01:51:44.290Z,100315.03
2018-05-18T01:54:12.649Z,100316.78
2018-05-18T01:56:41.077Z,100319.77
2018-05-18T01:59:09.436Z,100317.51
2018-05-18T02:01:37.759Z,100317.61
2018-05-18T02:04:06.142Z,100320.45
2018-05-18T02:06:34.478Z,100326.20
2018-05-18T02:09:02.804Z,100331.28
2018-05-18T02:11:31.153Z,100340.02
2018-05-18T02:13:59.481Z,100331.98
2018-05-18T02:16:27.834Z,100332.52
2018-05-18T02:18:56.180Z,100338.95
2018-05-18T02:21:24.526Z,100337.34
2018-05-18T02:23:52.988Z,100338.69
2018-05-18T02:26:21.324Z,100338.30
2018-05-18T02:28:49.670Z,100342.98
2018-05-18T02:31:18.008Z,100344.45
2018-05-18T02:33:46.351Z,100339.52
2018-05-18T02:36:14.702Z,100333.38
2018-05-18T02:38:43.047Z,100332.95
2018-05-18T02:41:11.439Z,100338.45
2018-05-18T02:43:39.771Z,100340.19
2018-05-18T02:46:08.101Z,100332.95
2018-05-18T02:48:36.460Z,100339.94
2018-05-18T02:51:05.255Z,100339.00
2018-05-18T02:53:33.680Z,100342.08
2018-05-18T02:56:02.116Z,100343.67
2018-05-18T02:58:30.487Z,100345.70
2018-05-18T03:00:58.819Z,100346.61
2018-05-18T03:03:27.152Z,100348.63
2018-05-18T03:05:55.574Z,100350.09
2018-05-18T03:08:23.939Z,100347.55
2018-05-18T03:10:52.264Z,100348.35
2018-05-18T03:13:20.614Z,100350.63
2018-05-18T03:15:48.928Z,100354.36
2018-05-18T03:18:17.368Z,100356.78
2018-05-18T03:20:46.280Z,100355.98
2018-05-18T03:23:14.634Z,100361.88
2018-05-18T03:25:43.401Z,100362.28
2018-05-18T03:28:11.738Z,100355.30
2018-05-18T03:30:40.170Z,100358.66
2018-05-18T03:33:08.493Z,100357.33
2018-05-18T03:35:36.860Z,100360.66
2018-05-18T03:38:05.183Z,100363.61
2018-05-18T03:40:33.520Z,100373.91
2018-05-18T03:43:01.871Z,100372.59
2018-05-18T03:45:30.218Z,100368.58
2018-05-18T03:47:58.602Z,100368.95
2018-05-18T03:50:27.360Z,100375.13
2018-05-18T03:52:55.816Z,100372.02
2018-05-18T03:55:24.270Z,100378.18
2018-05-18T03:57:52.848Z,100377.89
2018-05-18T04:00:21.456Z,100371.18
2018-05-18T04:03:02.290Z,100379.46
2018-05-18T04:05:42.435Z,100380.80
2018-05-18T04:08:22.660Z,100379.13
2018-05-18T04:10:51.048Z,100376.88
2018-05-18T04:13:19.383Z,100375.74
2018-05-18T04:15:47.833Z,100374.78
2018-05-18T04:18:16.175Z,100374.78
2018-05-18T04:20:44.855Z,100376.72
2018-05-18T04:23:13.482Z,100381.29
2018-05-18T04:25:42.127Z,100375.38
2018-05-18T04:28:10.503Z,100377.62
2018-05-18T04:30:38.839Z,100383.25
2018-05-18T04:33:07.181Z,100386.19
2018-05-18T04:35:35.516Z,100383.86
2018-05-18T04:38:03.917Z,100389.56
2018-05-18T04:40:32.231Z,100393.62
2018-05-18T04:43:00.572Z,100392.87
2018-05-18T04:45:28.926Z,100384.92
2018-05-18T04:47:57.346Z,100388.93
2018-05-18T04:50:25.683Z,100386.55
2018-05-18T04:52:54.030Z,100384.41
2018-05-18T04:55:22.401Z,100382.20
2018-05-18T04:57:50.816Z,100380.79
2018-05-18T05:00:19.237Z,100386.55
2018-05-18T05:02:47.714Z,100389.31
2018-05-18T05:05:16.073Z,100391.58
2018-05-18T05:07:44.462Z,100393.05
2018-05-18T05:10:13.106Z,100395.66
2018-05-18T05:12:41.490Z,100398.49
2018-05-18T05:15:09.785Z,100399.12
2018-05-18T05:17:38.173Z,100395.81
2018-05-18T05:20:06.646Z,100392.25
2018-05-18T05:22:35.087Z,100401.33
2018-05-18T05:25:03.468Z,100405.48
2018-05-18T05:27:31.827Z,100394.48
2018-05-18T05:30:00.225Z,100402.28
2018-05-18T05:32:28.561Z,100397.75
2018-05-18T05:34:56.907Z,100405.58
2018-05-18T05:37:25.252Z,100406.55
2018-05-18T05:39:53.743Z,100402.27
2018-05-18T05:42:22.108Z,100408.23
2018-05-18T05:44:50.421Z,100402.03
2018-05-18T05:47:19.280Z,100404.14
2018-05-18T05:49:47.614Z,100411.20
2018-05-18T05:52:15.959Z,100411.77
2018-05-18T05:54:44.350Z,100409.31
2018-05-18T05:57:12.745Z,100409.06
2018-05-18T05:59:41.088Z,100422.23
2018-05-18T06:02:09.959Z,100414.56
2018-05-18T06:04:38.297Z,100418.84
2018-05-18T06:07:06.713Z,100418.84
2018-05-18T06:09:35.547Z,100419.19
2018-05-18T06:12:03.864Z,100425.36
2018-05-18T06:14:32.214Z,100426.45
2018-05-18T06:17:00.578Z,100422.42
2018-05-18T06:19:29.056Z,100435.80
2018-05-18T06:21:57.386Z,100434.83
2018-05-18T06:24:25.730Z,100439.36
2018-05-18T06:26:54.155Z,100441.95
2018-05-18T06:29:22.507Z,100440.91
2018-05-18T06:31:50.835Z,100443.16
2018-05-18T06:34:19.184Z,100441.11
2018-05-18T06:36:47.524Z,100440.63
2018-05-18T06:39:16.236Z,100439.42
2018-05-18T06:41:44.609Z,100445.23
2018-05-18T06:44:12.965Z,100434.69
2018-05-18T06:46:41.349Z,100433.73
2018-05-18T06:49:09.815Z,100438.52
2018-05-18T06:51:38.159Z,100441.49
2018-05-18T06:54:06.485Z,100441.30
2018-05-18T06:56:34.872Z,100448.35
2018-05-18T06:59:03.214Z,100449.70
2018-05-18T07:01:31.559Z,100450.02
2018-05-18T07:03:59.966Z,100448.99
2018-05-18T07:06:28.267Z,100455.20
2018-05-18T07:08:56.645Z,100457.46
2018-05-18T07:11:28.549Z,100452.91
2018-05-18T07:13:57.465Z,100461.74
2018-05-18T07:16:25.942Z,100460.87
2018-05-18T07:18:54.199Z,100455.84
2018-05-18T07:21:22.554Z,100461.27
2018-05-18T07:23:50.994Z,100456.12
2018-05-18T07:26:19.427Z,100461.42
2018-05-18T07:28:48.225Z,100458.38
2018-05-18T07:31:16.574Z,100455.73
2018-05-18T07:33:44.960Z,100455.06
2018-05-18T07:36:13.403Z,100458.17
2018-05-18T07:38:41.729Z,100461.15
2018-05-18T07:41:10.072Z,100461.39
2018-05-18T07:43:38.400Z,100464.95
2018-05-18T07:46:06.743Z,100460.07
2018-05-18T07:48:35.100Z,100460.29
2018-05-18T07:51:03.519Z,100462.19
2018-05-18T07:53:31.948Z,100463.13
2018-05-18T07:56:00.303Z,100467.11
2018-05-18T07:58:28.669Z,100465.35
2018-05-18T08:00:56.997Z,100478.33
2018-05-18T08:03:25.372Z,100471.63
2018-05-18T08:05:53.723Z,100469.72
2018-05-18T08:08:22.060Z,100476.81
2018-05-18T08:10:50.465Z,100476.77
2018-05-18T08:13:18.752Z,100480.91
2018-05-18T08:15:47.105Z,100482.72
2018-05-18T08:18:15.438Z,100477.89
2018-05-18T08:20:43.798Z,100479.58
2018-05-18T08:23:12.108Z,100479.11
2018-05-18T08:25:40.463Z,100476.84
2018-05-18T08:28:11.683Z,100484.67
2018-05-18T08:30:51.717Z,100478.13
2018-05-18T08:33:20.059Z,100476.47
2018-05-18T08:35:48.500Z,100480.38
2018-05-18T08:38:16.845Z,100481.16
2018-05-18T08:40:45.194Z,100476.55
2018-05-18T08:43:13.528Z,100484.16
2018-05-18T08:45:41.973Z,100481.70
2018-05-18T08:48:10.341Z,100484.66
2018-05-18T08:50:41.023Z,100481.19
2018-05-18T08:53:09.393Z,100478.95
2018-05-18T08:55:40.109Z,100491.08
2018-05-18T08:58:08.438Z,100486.52
2018-05-18T09:00:36.852Z,100490.67
2018-05-18T09:03:05.212Z,100492.47
2018-05-18T09:05:33.568Z,100496.61
2018-05-18T09:08:02.063Z,100489.07
2018-05-18T09:10:30.447Z,100494.84
2018-05-18T09:12:58.776Z,100494.73
2018-05-18T09:15:27.100Z,100493.17
2018-05-18T09:17:55.441Z,100495.74
2018-05-18T09:20:23.872Z,100491.59
2018-05-18T09:22:52.223Z,100484.23
2018-05-18T09:25:20.556Z,100491.84
2018-05-18T09:27:48.955Z,100493.63
2018-05-18T09:30:17.279Z,100497.38
2018-05-18T09:32:45.625Z,100493.23
2018-05-18T09:35:13.963Z,100498.28
2018-05-18T09:37:42.315Z,100505.33
2018-05-18T09:40:10.675Z,100497.66
2018-05-18T09:42:39.101Z,100500.14
2018-05-18T09:45:07.556Z,100502.73
2018-05-18T09:47:35.865Z,100503.80
2018-05-18T09:50:04.275Z,100510.09
2018-05-18T09:52:32.608Z,100507.03
2018-05-18T09:55:01.101Z,100513.19
2018-05-18T09:57:29.351Z,100513.45
2018-05-18T09:59:57.696Z,100515.36
2018-05-18T10:02:26.038Z,100507.16
2018-05-18T10:04:54.433Z,100509.16
2018-05-18T10:07:22.794Z,100507.72
2018-05-18T10:09:51.136Z,100504.39
2018-05-18T10:12:19.597Z,100496.12
2018-05-18T10:14:47.891Z,100505.06
2018-05-18T10:17:16.300Z,100504.66
2018-05-18T10:19:44.661Z,100499.94
2018-05-18T10:22:13.023Z,100512.19
2018-05-18T10:24:41.363Z,100511.91
2018-05-18T10:27:09.708Z,100511.37
2018-05-18T10:29:38.043Z,100518.31
2018-05-18T10:32:06.440Z,100518.73
2018-05-18T10:34:34.841Z,100525.31
2018-05-18T10:37:03.194Z,100526.56
2018-05-18T10:39:31.635Z,100528.20
2018-05-18T10:42:00.020Z,100530.58
2018-05-18T10:44:28.359Z,100526.28
2018-05-18T10:46:56.712Z,100526.71
2018-05-18T10:49:25.112Z,100523.06
2018-05-18T10:51:53.485Z,100529.05
2018-05-18T10:54:24.731Z,100534.73
2018-05-18T10:56:53.085Z,100536.11
2018-05-18T10:59:21.534Z,100532.37
2018-05-18T11:01:49.867Z,100529.42
2018-05-18T11:04:18.195Z,100529.96
2018-05-18T11:06:46.624Z,100530.42
2018-05-18T11:09:15.054Z,100540.31
2018-05-18T11:11:43.399Z,100538.36
2018-05-18T11:14:12.058Z,100543.33
2018-05-18T11:16:40.289Z,100531.02
2018-05-18T11:19:08.666Z,100525.50
2018-05-18T11:21:37.004Z,100528.76
2018-05-18T11:24:05.335Z,100526.18
2018-05-18T11:26:33.666Z,100522.84
2018-05-18T11:29:02.037Z,100520.20
2018-05-18T11:31:30.369Z,100524.02
2018-05-18T11:33:58.716Z,100524.36
2018-05-18T11:36:27.045Z,100513.84
2018-05-18T11:38:55.403Z,100520.62
2018-05-18T11:41:24.203Z,100519.00
2018-05-18T11:43:52.590Z,100516.02
2018-05-18T11:46:20.976Z,100515.89
2018-05-18T11:48:49.386Z,100519.13
2018-05-18T11:51:17.715Z,100526.62
2018-05-18T11:53:46.074Z,100529.36
2018-05-18T11:56:15.076Z,100530.39
2018-05-18T11:58:43.443Z,100536.16
2018-05-18T12:01:11.946Z,100525.64
2018-05-18T12:03:40.279Z,100524.12
2018-05-18T12:06:08.619Z,100515.37
2018-05-18T12:08:37.609Z,100514.58
2018-05-18T12:11:05.911Z,100514.70
2018-05-18T12:13:34.258Z,100513.89
2018-05-18T12:16:02.608Z,100512.91
2018-05-18T12:18:30.951Z,100506.35
2018-05-18T12:20:59.391Z,100508.99
2018-05-18T12:23:27.788Z,100508.16
2018-05-18T12:25:56.128Z,100512.47
2018-05-18T12:28:24.465Z,100510.61
2018-05-18T12:30:52.810Z,100508.00
2018-05-18T12:33:21.152Z,100504.34
2018-05-18T12:35:49.496Z,100511.39
2018-05-18T12:38:18.010Z,100514.33
2018-05-18T12:40:46.284Z,100505.18
2018-05-18T12:43:14.729Z,100507.87
2018-05-18T12:45:43.127Z,100503.10
2018-05-18T12:48:11.448Z,100504.97
2018-05-18T12:50:39.820Z,100500.63
2018-05-18T12:53:08.150Z,100501.58
2018-05-18T12:55:36.499Z,100496.03
2018-05-18T12:58:04.847Z,100493.12
2018-05-18T13:00:33.263Z,100505.89
2018-05-18T13:03:01.681Z,100493.34
2018-05-18T13:05:30.044Z,100488.45
2018-05-18T13:07:58.395Z,100496.59
2018-05-18T13:10:26.831Z,100486.80
2018-05-18T13:12:55.323Z,100484.13
2018-05-18T13:15:23.668Z,100485.57
2018-05-18T13:17:52.097Z,100489.81
2018-05-18T13:20:20.505Z,100490.66
2018-05-18T13:22:48.895Z,100490.09
2018-05-18T13:25:17.247Z,100494.52
2018-05-18T13:27:45.787Z,100486.20
2018-05-18T13:30:14.127Z,100480.53
2018-05-18T13:32:42.467Z,100482.88
2018-05-18T13:35:10.814Z,100490.39
2018-05-18T13:37:39.239Z,100484.47
2018-05-18T13:40:07.648Z,100485.03
2018-05-18T13:42:36.997Z,100484.18
2018-05-18T13:45:05.356Z,100486.64
2018-05-18T13:47:33.683Z,100479.69
2018-05-18T13:50:02.044Z,100483.41
2018-05-18T13:52:30.419Z,100492.17
2018-05-18T13:54:58.853Z,100483.02
2018-05-18T13:57:27.226Z,100487.00
2018-05-18T13:59:55.564Z,100481.94
2018-05-18T14:02:23.921Z,100487.41
2018-05-18T14:04:52.287Z,100486.36
2018-05-18T14:07:20.602Z,100491.17
2018-05-18T14:09:48.947Z,100487.61
2018-05-18T14:12:17.284Z,100481.83
2018-05-18T14:14:45.625Z,100485.73
2018-05-18T14:17:14.011Z,100482.60
2018-05-18T14:19:42.336Z,100475.24
2018-05-18T14:22:10.675Z,100472.88
2018-05-18T14:24:39.117Z,100472.80
2018-05-18T14:27:07.459Z,100482.45
2018-05-18T14:29:35.865Z,100478.34
2018-05-18T14:32:04.207Z,100472.83
2018-05-18T14:34:32.532Z,100472.22
2018-05-18T14:37:00.884Z,100467.66
2018-05-18T14:39:29.327Z,100473.61
2018-05-18T14:41:57.704Z,100471.64
2018-05-18T14:44:26.111Z,100480.69
2018-05-18T14:46:54.461Z,100465.91
2018-05-18T14:49:22.794Z,100473.92
2018-05-18T14:51:51.239Z,100477.68
2018-05-18T14:54:19.597Z,100471.93
2018-05-18T14:56:48.018Z,100469.71
2018-05-18T14:59:16.340Z,100463.47
2018-05-18T15:01:44.714Z,100458.30
2018-05-18T15:04:13.059Z,100459.80
2018-05-18T15:06:41.452Z,100466.05
2018-05-18T15:09:09.883Z,100462.33
2018-05-18T15:11:38.284Z,100462.55
2018-05-18T15:14:06.637Z,100462.59
2018-05-18T15:16:34.981Z,100469.05
2018-05-18T15:19:03.343Z,100461.58
2018-05-18T15:21:31.696Z,100457.77
2018-05-18T15:24:00.056Z,100455.73
2018-05-18T15:26:28.435Z,100462.75
2018-05-18T15:28:56.765Z,100458.49
2018-05-18T15:31:25.093Z,100460.56
2018-05-18T15:33:53.571Z,100465.15
2018-05-18T15:36:22.004Z,100457.73
2018-05-18T15:38:50.413Z,100457.30
2018-05-18T15:41:18.784Z,100449.17
2018-05-18T15:43:47.175Z,100453.05
2018-05-18T15:46:15.870Z,100455.33
2018-05-18T15:48:44.243Z,100456.75
2018-05-18T15:51:12.659Z,100459.43
2018-05-18T15:53:41.032Z,100464.30
2018-05-18T15:56:09.446Z,100459.23
2018-05-18T15:58:37.812Z,100449.49
2018-05-18T16:01:06.140Z,100453.23
2018-05-18T16:03:34.477Z,100459.30
2018-05-18T16:06:02.826Z,100459.16
2018-05-18T16:08:31.160Z,100462.67
2018-05-18T16:10:59.491Z,100466.04
2018-05-18T16:13:27.834Z,100463.38
2018-05-18T16:15:56.175Z,100459.66
2018-05-18T16:18:24.522Z,100465.06
2018-05-18T16:20:52.875Z,100463.13
2018-05-18T16:23:21.204Z,100462.02
2018-05-18T16:25:49.562Z,100463.51
2018-05-18T16:28:18.017Z,100470.01
2018-05-18T16:30:46.313Z,100460.74
2018-05-18T16:33:14.717Z,100469.45
2018-05-18T16:35:43.050Z,100471.89
2018-05-18T16:38:11.384Z,100476.05
2018-05-18T16:40:39.760Z,100477.53
2018-05-18T16:43:08.118Z,100473.54
2018-05-18T16:45:36.484Z,100468.98
2018-05-18T16:48:04.832Z,100464.53
2018-05-18T16:50:33.268Z,100465.75
2018-05-18T16:53:01.655Z,100462.42
2018-05-18T16:55:30.048Z,100463.05
2018-05-18T16:57:58.472Z,100467.50
2018-05-18T17:00:26.927Z,100470.45
2018-05-18T17:02:55.274Z,100471.55
2018-05-18T17:05:23.716Z,100474.17
2018-05-18T17:07:52.107Z,100470.48
2018-05-18T17:10:20.460Z,100477.30
2018-05-18T17:12:48.936Z,100480.50
2018-05-18T17:15:17.275Z,100485.32
2018-05-18T17:17:45.762Z,100482.66
2018-05-18T17:20:14.210Z,100489.10
2018-05-18T17:22:42.589Z,100491.63
2018-05-18T17:25:10.946Z,100487.74
2018-05-18T17:27:39.289Z,100489.84
2018-05-18T17:30:07.643Z,100488.61
2018-05-18T17:32:36.047Z,100495.91
2018-05-18T17:35:05.620Z,100496.87
2018-05-18T17:37:33.958Z,100497.09
2018-05-18T17:40:02.351Z,100500.59
2018-05-18T17:42:30.761Z,100502.61
2018-05-18T17:44:59.129Z,100501.83
2018-05-18T17:47:27.524Z,100505.38
2018-05-18T17:49:55.908Z,100502.94
2018-05-18T17:52:24.300Z,100496.52
2018-05-18T17:54:52.640Z,100504.33
2018-05-18T17:57:21.129Z,100507.94
2018-05-18T17:59:49.686Z,100508.00
2018-05-18T18:02:18.032Z,100514.00
2018-05-18T18:04:46.364Z,100512.84
2018-05-18T18:07:14.755Z,100515.42
2018-05-18T18:09:43.888Z,100513.92
2018-05-18T18:12:12.243Z,100519.09
2018-05-18T18:14:40.685Z,100513.27
2018-05-18T18:17:09.031Z,100516.13
2018-05-18T18:19:38.184Z,100517.78
2018-05-18T18:22:06.553Z,100523.30
2018-05-18T18:24:34.883Z,100523.19
2018-05-18T18:27:03.302Z,100529.25
2018-05-18T18:29:31.775Z,100532.46
2018-05-18T18:32:00.094Z,100536.87
2018-05-18T18:34:28.448Z,100538.73
2018-05-18T18:36:56.788Z,100538.86
2018-05-18T18:39:26.348Z,100540.20
2018-05-18T18:41:54.696Z,100547.33
2018-05-18T18:44:23.033Z,100550.62
2018-05-18T18:46:51.396Z,100549.30
2018-05-18T18:49:19.828Z,100553.26
2018-05-18T18:51:48.157Z,100559.98
2018-05-18T18:54:16.495Z,100553.26
2018-05-18T18:56:44.860Z,100557.52
2018-05-18T18:59:13.205Z,100561.47
2018-05-18T19:01:41.539Z,100566.47
2018-05-18T19:04:10.221Z,100573.77
2018-05-18T19:06:38.581Z,100569.13
2018-05-18T19:09:06.925Z,100574.61
2018-05-18T19:11:35.260Z,100572.67
2018-05-18T19:14:03.604Z,100578.34
2018-05-18T19:16:31.950Z,100573.54
2018-05-18T19:19:00.311Z,100583.39
2018-05-18T19:21:28.710Z,100589.15
2018-05-18T19:23:57.083Z,100589.36
2018-05-18T19:26:25.467Z,100585.96
2018-05-18T19:28:53.804Z,100591.36
2018-05-18T19:31:22.150Z,100596.89
2018-05-18T19:33:50.536Z,100599.41
2018-05-18T19:36:18.938Z,100601.02
2018-05-18T19:38:47.280Z,100603.11
2018-05-18T19:41:16.387Z,100600.22
2018-05-18T19:43:44.833Z,100609.58
2018-05-18T19:46:13.147Z,100612.05
2018-05-18T19:48:41.494Z,100609.81
2018-05-18T19:51:09.910Z,100615.09
2018-05-18T19:53:38.271Z,100619.42
2018-05-18T19:56:07.248Z,100616.11
2018-05-18T19:58:36.256Z,100620.98
2018-05-18T20:01:04.712Z,100615.77
2018-05-18T20:03:33.193Z,100618.73
2018-05-18T20:06:01.604Z,100611.00
2018-05-18T20:08:29.985Z,100620.53
2018-05-18T20:10:58.476Z,100619.33
2018-05-18T20:13:27.554Z,100616.36
2018-05-18T20:15:56.002Z,100614.88
2018-05-18T20:18:24.353Z,100621.44
2018-05-18T20:20:52.709Z,100618.97
2018-05-18T20:23:21.071Z,100615.03
2018-05-18T20:25:49.463Z,100617.16
2018-05-18T20:28:17.792Z,100617.16
2018-05-18T20:30:46.140Z,100615.12
2018-05-18T20:33:14.585Z,100616.44
2018-05-18T20:35:43.139Z,100621.77
2018-05-18T20:38:11.647Z,100617.56
2018-05-18T20:40:39.931Z,100621.83
2018-05-18T20:43:08.290Z,100617.38
2018-05-18T20:45:36.621Z,100621.91
2018-05-18T20:48:04.974Z,100619.36
2018-05-18T20:50:33.372Z,100624.58
2018-05-18T20:53:01.774Z,100623.51
2018-05-18T20:55:30.119Z,100615.08
2018-05-18T20:57:58.562Z,100612.41
2018-05-18T21:00:26.955Z,100614.17
2018-05-18T21:02:55.329Z,100615.65
2018-05-18T21:05:23.719Z,100618.34
2018-05-18T21:07:52.068Z,100617.59
2018-05-18T21:10:20.413Z,100619.34
2018-05-18T21:12:48.751Z,100617.98
2018-05-18T21:15:17.194Z,100609.14
2018-05-18T21:17:45.783Z,100607.80
2018-05-18T21:20:14.221Z,100608.95
2018-05-18T21:22:42.551Z,100612.98
2018-05-18T21:25:10.909Z,100608.82
2018-05-18T21:27:39.263Z,100618.57
2018-05-18T21:30:07.644Z,100612.02
2018-05-18T21:32:36.048Z,100615.80
2018-05-18T21:35:04.566Z,100620.77
2018-05-18T21:37:32.903Z,100626.09
2018-05-18T21:40:01.324Z,100621.27
2018-05-18T21:42:29.712Z,100627.05
2018-05-18T21:44:58.110Z,100629.59
2018-05-18T21:47:26.515Z,100627.30
2018-05-18T21:49:54.856Z,100627.67
2018-05-18T21:52:23.399Z,100633.97
2018-05-18T21:54:52.759Z,100635.91
2018-05-18T21:57:21.091Z,100627.48
2018-05-18T21:59:49.441Z,100628.91
2018-05-18T22:02:17.777Z,100632.80
2018-05-18T22:04:46.269Z,100636.06
2018-05-18T22:07:14.603Z,100630.67
2018-05-18T22:09:42.956Z,100636.81
2018-05-18T22:12:11.296Z,100631.44
2018-05-18T22:14:39.637Z,100633.47
2018-05-18T22:17:08.033Z,100637.23
2018-05-18T22:19:36.431Z,100636.04
2018-05-18T22:22:04.800Z,100633.59
2018-05-18T22:24:33.133Z,100639.15
2018-05-18T22:27:01.500Z,100639.77
2018-05-18T22:29:29.834Z,100639.63
2018-05-18T22:31:58.988Z,100636.38
2018-05-18T22:34:27.390Z,100642.83
2018-05-18T22:36:55.741Z,100632.97
2018-05-18T22:39:24.105Z,100638.62
2018-05-18T22:41:52.521Z,100632.14
2018-05-18T22:44:20.879Z,100626.34
2018-05-18T22:46:49.256Z,100627.19
2018-05-18T22:49:17.583Z,100626.69
2018-05-18T22:51:45.935Z,100630.09
2018-05-18T22:54:14.315Z,100631.86
2018-05-18T22:56:42.677Z,100624.33
2018-05-18T22:59:11.251Z,100625.92
2018-05-18T23:01:39.606Z,100622.44
2018-05-18T23:04:07.941Z,100619.03
2018-05-18T23:06:36.300Z,100618.11
2018-05-18T23:09:05.337Z,100618.23
2018-05-18T23:11:33.695Z,100623.91
2018-05-18T23:14:02.053Z,100623.94
2018-05-18T23:16:30.477Z,100621.77
2018-05-18T23:18:58.908Z,100621.27
2018-05-18T23:21:27.260Z,100622.19
2018-05-18T23:23:55.603Z,100618.28
2018-05-18T23:26:24.023Z,100618.83
2018-05-18T23:28:52.360Z,100612.77
2018-05-18T23:31:20.697Z,100610.63
2018-05-18T23:33:49.123Z,100610.23
2018-05-18T23:36:17.502Z,100612.38
2018-05-18T23:38:45.900Z,100611.45
2018-05-18T23:41:14.236Z,100610.50
2018-05-18T23:43:42.588Z,100603.26
2018-05-18T23:46:10.915Z,100614.41
2018-05-18T23:48:39.412Z,100616.41
2018-05-18T23:51:07.765Z,100609.28
2018-05-18T23:53:36.647Z,100604.03
2018-05-18T23:56:04.977Z,100611.00
2018-05-18T23:58:33.355Z,100602.81
